createdAt,value
2018-08-24T00:12:30.263Z,8.83
2018-08-24T00:17:36.721Z,7.90
2018-08-24T00:28:31.127Z,7.87
2018-08-24T00:33:55.771Z,7.80
2018-08-24T00:39:01.050Z,7.80
2018-08-24T01:11:51.131Z,10.27
2018-08-24T01:16:59.802Z,9.63
2018-08-24T01:22:02.893Z,9.23
2018-08-24T01:27:17.606Z,9.43
2018-08-24T01:32:20.734Z,9.07
2018-08-24T01:37:23.790Z,8.77
2018-08-24T01:42:26.813Z,9.13
2018-08-24T01:47:29.854Z,9.67
2018-08-24T01:52:32.911Z,9.07
2018-08-24T01:57:35.967Z,9.27
2018-08-24T02:02:39.075Z,9.73
2018-08-24T02:07:42.105Z,9.20
2018-08-24T02:12:50.497Z,10.67
2018-08-24T02:17:58.935Z,10.13
2018-08-24T02:23:09.022Z,11.17
2018-08-24T02:28:12.094Z,10.70
2018-08-24T02:33:15.173Z,10.23
2018-08-24T02:38:18.259Z,11.13
2018-08-24T02:43:21.370Z,9.33
2018-08-24T02:48:24.502Z,8.63
2018-08-24T02:53:27.650Z,9.20
2018-08-24T02:58:30.721Z,9.00
2018-08-24T03:03:33.792Z,9.20
2018-08-24T03:08:36.907Z,10.37
2018-08-24T03:13:40.039Z,11.83
2018-08-24T03:18:43.171Z,11.40
2018-08-24T03:23:46.399Z,10.97
2018-08-24T03:28:49.474Z,10.13
2018-08-24T03:33:52.561Z,11.83
2018-08-24T03:38:55.697Z,10.47
2018-08-24T03:43:58.924Z,10.63
2018-08-24T03:49:02.059Z,10.37
2018-08-24T03:54:10.764Z,9.63
2018-08-24T03:59:13.873Z,10.40
2018-08-24T04:04:17.104Z,9.80
2018-08-24T04:09:20.219Z,10.10
2018-08-24T04:14:23.340Z,10.30
2018-08-24T04:19:27.464Z,10.90
2018-08-24T04:24:30.494Z,9.90
2018-08-24T04:29:33.660Z,10.40
2018-08-24T04:34:36.760Z,10.77
2018-08-24T04:39:41.651Z,11.63
2018-08-24T04:44:44.807Z,13.80
2018-08-24T04:49:48.147Z,13.97
2018-08-24T04:54:56.913Z,14.70
2018-08-24T05:00:00.198Z,15.53
2018-08-24T05:05:13.364Z,16.83
2018-08-24T05:10:17.192Z,16.93
2018-08-24T05:15:30.072Z,18.83
2018-08-24T05:20:42.930Z,17.37
2018-08-24T05:25:50.660Z,18.10
2018-08-24T05:30:53.900Z,18.00
2018-08-24T05:36:01.588Z,18.47
2018-08-24T05:41:04.936Z,21.67
2018-08-24T05:46:08.043Z,20.73
2018-08-24T05:51:11.623Z,17.77
2018-08-24T05:56:14.848Z,15.53
2018-08-24T06:01:18.012Z,16.03
2018-08-24T06:06:21.234Z,15.53
2018-08-24T06:11:24.451Z,16.57
2018-08-24T06:16:27.543Z,15.77
2018-08-24T06:21:30.700Z,18.50
2018-08-24T06:26:33.883Z,17.37
2018-08-24T06:31:37.075Z,17.57
2018-08-24T06:36:40.388Z,18.30
2018-08-24T06:41:44.235Z,17.27
2018-08-24T06:46:47.246Z,18.40
2018-08-24T06:51:50.355Z,17.27
2018-08-24T06:57:05.729Z,17.23
2018-08-24T07:02:08.811Z,16.77
2018-08-24T07:07:11.930Z,16.83
2018-08-24T07:12:15.075Z,14.70
2018-08-24T07:17:23.501Z,14.87
2018-08-24T07:22:26.612Z,13.67
2018-08-24T07:27:29.738Z,12.97
2018-08-24T07:32:32.803Z,12.13
2018-08-24T07:37:35.879Z,10.37
2018-08-24T07:42:38.980Z,10.03
2018-08-24T07:47:42.103Z,10.80
2018-08-24T07:52:45.224Z,11.10
2018-08-24T07:57:48.361Z,12.27
2018-08-24T08:02:51.381Z,11.80
2018-08-24T08:07:54.397Z,13.00
2018-08-24T08:12:57.526Z,12.17
2018-08-24T08:18:00.569Z,12.00
2018-08-24T08:23:03.691Z,13.03
2018-08-24T08:28:06.727Z,11.87
2018-08-24T08:33:10.140Z,10.37
2018-08-24T08:38:13.192Z,9.37
2018-08-24T08:43:16.380Z,6.87
2018-08-24T08:48:19.407Z,7.00
2018-08-24T08:53:22.437Z,5.47
2018-08-24T08:58:30.966Z,5.47
2018-08-24T09:03:33.978Z,4.87
2018-08-24T09:08:36.989Z,4.10
2018-08-24T09:13:39.989Z,4.27
2018-08-24T09:18:48.514Z,3.90
2018-08-24T09:23:57.035Z,3.93
2018-08-24T09:29:04.614Z,3.63
2018-08-24T09:34:07.629Z,4.00
2018-08-24T09:39:10.714Z,4.03
2018-08-24T09:44:13.831Z,4.83
2018-08-24T09:49:22.281Z,4.60
2018-08-24T09:54:25.309Z,4.03
2018-08-24T09:59:28.363Z,4.40
2018-08-24T10:04:36.854Z,4.30
2018-08-24T10:09:39.973Z,4.30
2018-08-24T10:14:43.022Z,3.40
2018-08-24T10:19:46.034Z,3.83
2018-08-24T10:24:49.066Z,3.97
2018-08-24T10:29:52.162Z,3.13
2018-08-24T10:34:55.103Z,3.80
2018-08-24T10:39:58.117Z,3.70
2018-08-24T10:45:01.131Z,3.17
2018-08-24T10:50:04.180Z,3.20
2018-08-24T10:55:07.351Z,2.90
2018-08-24T11:00:10.407Z,2.47
2018-08-24T11:05:13.445Z,2.83
2018-08-24T11:10:16.458Z,3.00
2018-08-24T11:15:19.479Z,3.30
2018-08-24T11:20:22.526Z,3.00
2018-08-24T11:25:25.600Z,3.30
2018-08-24T11:30:28.628Z,3.20
2018-08-24T11:35:31.661Z,3.50
2018-08-24T11:40:34.921Z,2.80
2018-08-24T11:45:37.966Z,3.77
2018-08-24T11:50:41.006Z,3.57
2018-08-24T11:55:44.070Z,4.00
2018-08-24T12:00:47.119Z,3.40
2018-08-24T12:05:50.251Z,3.60
2018-08-24T12:10:53.289Z,3.80
2018-08-24T12:15:56.314Z,4.00
2018-08-24T12:20:59.366Z,3.80
2018-08-24T12:26:02.926Z,4.23
2018-08-24T12:31:05.983Z,3.80
2018-08-24T12:36:12.278Z,4.50
2018-08-24T12:41:15.335Z,4.27
2018-08-24T12:46:18.324Z,4.50
2018-08-24T12:51:21.759Z,4.37
2018-08-24T12:56:24.997Z,4.73
2018-08-24T13:01:28.020Z,5.40
2018-08-24T13:06:31.059Z,5.40
2018-08-24T13:11:34.070Z,5.07
2018-08-24T13:16:37.082Z,5.17
2018-08-24T13:21:40.162Z,5.00
2018-08-24T13:26:43.179Z,5.13
2018-08-24T13:31:46.182Z,4.83
2018-08-24T13:36:49.223Z,4.83
2018-08-24T13:41:52.339Z,5.10
2018-08-24T13:46:55.355Z,4.93
2018-08-24T13:52:10.475Z,5.57
2018-08-24T13:57:13.558Z,4.80
2018-08-24T14:02:16.585Z,5.00
2018-08-24T14:07:19.610Z,4.80
2018-08-24T14:12:22.626Z,4.67
2018-08-24T14:17:25.642Z,4.60
2018-08-24T14:22:28.677Z,4.10
2018-08-24T14:27:32.039Z,4.37
2018-08-24T14:32:35.915Z,4.40
2018-08-24T14:37:39.315Z,4.03
2018-08-24T14:42:42.349Z,4.03
2018-08-24T14:47:45.383Z,4.47
2018-08-24T14:52:48.425Z,4.47
2018-08-24T14:57:51.483Z,4.37
2018-08-24T15:02:54.515Z,4.00
2018-08-24T15:07:57.549Z,3.97
2018-08-24T15:13:00.586Z,4.33
2018-08-24T15:18:03.612Z,4.87
2018-08-24T15:23:06.739Z,4.37
2018-08-24T15:28:09.666Z,4.53
2018-08-24T15:33:12.701Z,4.37
2018-08-24T15:38:15.699Z,4.50
2018-08-24T15:43:18.803Z,4.77
2018-08-24T15:48:21.831Z,4.80
2018-08-24T15:53:24.849Z,6.13
2018-08-24T15:58:27.849Z,5.10
2018-08-24T16:03:30.878Z,3.90
2018-08-24T16:08:33.906Z,4.37
2018-08-24T16:13:36.925Z,4.43
2018-08-24T16:18:39.978Z,4.50
2018-08-24T16:23:43.023Z,4.37
2018-08-24T16:28:46.039Z,4.50
2018-08-24T16:33:49.969Z,4.33
2018-08-24T16:38:53.000Z,3.40
2018-08-24T16:43:55.997Z,5.27
2018-08-24T16:48:59.040Z,28.97
2018-08-24T16:54:02.045Z,11.40
2018-08-24T16:59:05.050Z,4.03
2018-08-24T17:04:08.088Z,14.53
2018-08-24T17:09:12.317Z,5.50
2018-08-24T17:14:15.354Z,6.60
2018-08-24T17:19:18.358Z,4.20
2018-08-24T17:24:21.386Z,3.63
2018-08-24T17:29:24.425Z,5.60
2018-08-24T17:34:27.449Z,12.90
2018-08-24T17:39:30.458Z,5.47
2018-08-24T17:44:33.478Z,5.73
2018-08-24T17:49:36.499Z,3.77
2018-08-24T17:54:39.498Z,5.20
2018-08-24T17:59:42.522Z,3.37
2018-08-24T18:04:45.599Z,3.03
2018-08-24T18:09:48.601Z,3.07
2018-08-24T18:14:51.691Z,3.10
2018-08-24T18:19:56.692Z,2.97
2018-08-24T18:24:59.702Z,2.63
2018-08-24T18:30:02.749Z,2.30
2018-08-24T18:35:05.835Z,2.73
2018-08-24T18:40:10.894Z,2.93
2018-08-24T18:45:13.929Z,3.30
2018-08-24T18:50:16.995Z,3.43
2018-08-24T18:55:20.052Z,2.93
2018-08-24T19:00:23.135Z,3.30
2018-08-24T19:05:26.283Z,2.97
2018-08-24T19:10:31.098Z,2.97
2018-08-24T19:15:34.254Z,2.90
2018-08-24T19:20:43.892Z,2.60
2018-08-24T19:25:46.883Z,2.60
2018-08-24T19:30:50.018Z,2.53
2018-08-24T19:35:53.083Z,3.00
2018-08-24T19:43:06.273Z,2.93
2018-08-24T19:48:15.119Z,2.70
2018-08-24T19:53:24.303Z,3.17
2018-08-24T19:58:32.865Z,2.93
2018-08-24T20:31:14.100Z,2.30
2018-08-24T20:53:11.346Z,2.20
2018-08-24T21:03:43.135Z,2.00
2018-08-24T21:14:13.947Z,2.60
2018-08-24T21:30:36.617Z,2.30
2018-08-24T21:35:39.677Z,2.20
2018-08-24T22:09:17.704Z,1.80
2018-08-24T22:19:58.334Z,2.10
2018-08-24T22:25:02.303Z,2.17
2018-08-24T22:35:43.101Z,2.50
2018-08-24T22:40:47.055Z,1.70
2018-08-24T22:45:54.945Z,1.77
2018-08-24T22:51:04.003Z,1.87
